Paragonah, Utah
Current Conditions -  °F | °C
As of 8:53 PM on Wednesday 17 Dec 2014 (Local Time) from KCDC Reporting Station
Overcast Overcast  
Wind Chill: -2°   Ceiling: 7000
Heat Index:   Visibility: 10mi
Dew Point: -1°   Wind: 5mph
Humidity: 89%   Direction: 290°WNW
Pressure: 30.04"   Gusts: NA
Location:  37.89°N, 112.78°W
Report Text: KCDC 180353Z AUTO 29004KT 10SM OVC070 01/M01 A3004 RMK AO2 SLP178 T00061011
Loading
Personal Weather Stations






























Interactive Weather Map New forecast layout! Learn more

10-Day Weather Forecast

Advertisements
Track Severe Weather on mobile